Aérodrome :
LOGIN :

S'inscrire | Disclaimer

   EN    FR    IT 

 










Légende :    VFR   VFR Marginal   IFR   IFR Intensif   IFR Très Intensif
Visi : 
Plafond : 
>= 8 km
>= 3000ft
5 à 8 km
1000 à 3000 ft
1500m à 5 km
500 à 1000 ft
800 à 1500m
200 à 500 ft
< 800m
< 200 ft
Symboles :   Orages  Brouillard  Fortes neiges  Fortes précipitations  Vent > 20 kt
SIGMETs :   Divers  Orages  Givrage  Turbulence  Onde Orograph.  Cendres Volcan.






- Altitude de l'aérodrome : 112 ft
- Code IATA : KIR


EIKY - Kerry Farranfore

DERNIER METAR :
  • 131530Z 35004KT 310V050 9999 SCT025 BKN040 17/12 Q1015

METARs EXPIRÉS :
  • 131500Z 34005KT 280V060 9999 SCT030 OVC035 17/12 Q1015
  • 131430Z 34005KT 310V040 9999 FEW030 OVC039 17/12 Q1015
  • 131400Z 28003KT 220V360 9999 FEW024 OVC037 17/10 Q1015
  • 131330Z VRB02KT 9999 FEW024 BKN036 18/11 Q1015
  • 131300Z 35003KT 260V030 9999 OVC028 16/11 Q1016
  • 131230Z VRB02KT 9999 OVC029 16/12 Q1016
  • 131200Z VRB02KT 9999 OVC029 15/12 Q1016
  • 131130Z VRB02KT 9999 OVC026 15/11 Q1016
  • 131100Z VRB02KT 9999 FEW021 SCT026 OVC049 16/11 Q1016

TAF TAF EIKY
Valide du 13 à 15h jusqu'au 14 à 00h UTC


131400Z 1315/1324 VRB03KT 9999 FEW025 BKN040



MET'MAP, la Météo Aéronautique d'un coup d'oeil ! - Copyright ORBIFLY Décembre 2007 - Disclaimer

ORBIFLY MET'MAP TEAM :

Programmation & Développement : Alexandra Zaïnal
Sur une idée originale de : Baudouin d'Aumeries
Soutien technique & logistique : Manuel Goepfert
Assistance : Marc-Olivier Méhu




SOURCES & CREDITS :

   NOAA